createdAt,value
2017-06-28T07:13:03.269Z,22.4
2017-06-28T07:14:05.333Z,22.3
2017-06-28T07:15:07.381Z,22.5
2017-06-28T07:16:09.428Z,22.6
2017-06-28T07:17:11.487Z,22.7
2017-06-28T07:18:13.546Z,22.8
2017-06-28T07:19:15.615Z,23
2017-06-28T07:20:17.662Z,23.2
2017-06-28T07:21:20.068Z,23.4
2017-06-28T07:22:22.128Z,23.5
2017-06-28T07:23:24.175Z,23.8
2017-06-28T07:24:26.245Z,23.9
2017-06-28T07:25:28.320Z,24.1
2017-06-28T07:26:30.406Z,24.3
2017-06-28T07:27:32.457Z,24.4
2017-06-28T07:28:34.844Z,24.6
2017-06-28T07:29:36.916Z,24.8
2017-06-28T07:30:38.970Z,24.9
2017-06-28T07:31:41.065Z,25
2017-06-28T07:32:43.138Z,25.1
2017-06-28T07:33:45.198Z,25.3
2017-06-28T07:34:47.262Z,25.4
2017-06-28T07:35:49.525Z,25.5
2017-06-28T07:36:52.108Z,25.5
2017-06-28T07:37:54.382Z,25.6
2017-06-28T07:38:56.458Z,25.6
2017-06-28T07:39:58.868Z,25.7
2017-06-28T07:41:00.946Z,25.8
2017-06-28T07:42:03.009Z,25.8
2017-06-28T07:43:05.420Z,25.8
2017-06-28T07:44:07.480Z,25.9
2017-06-28T07:45:09.544Z,25.9
2017-06-28T07:46:11.622Z,26
2017-06-28T07:47:13.672Z,26
2017-06-28T07:48:16.782Z,26.1
2017-06-28T07:49:18.875Z,26.1
2017-06-28T07:50:20.966Z,26.2
2017-06-28T07:51:23.374Z,26.2
2017-06-28T07:52:25.425Z,26.2
2017-06-28T07:53:27.514Z,26.2
2017-06-28T07:54:29.596Z,26.3
2017-06-28T07:55:31.651Z,26.3
2017-06-28T07:56:33.704Z,26.3
2017-06-28T07:57:35.771Z,26.3
2017-06-28T07:58:37.828Z,26.3
2017-06-28T07:59:39.924Z,26.3
2017-06-28T08:00:42.340Z,26.4
2017-06-28T08:01:44.754Z,26.4
2017-06-28T08:02:46.819Z,26.4
2017-06-28T08:03:48.865Z,26.4
2017-06-28T08:04:50.940Z,26.5
2017-06-28T08:05:53.363Z,26.5
2017-06-28T08:06:55.946Z,26.5
2017-06-28T08:07:58.344Z,26.5
2017-06-28T08:09:00.398Z,26.5
2017-06-28T08:10:02.840Z,26.5
2017-06-28T08:11:04.897Z,26.5
2017-06-28T08:12:06.957Z,26.5
2017-06-28T08:13:09.031Z,26.5
2017-06-28T08:14:11.083Z,26.6
2017-06-28T08:15:13.142Z,26.6
2017-06-28T08:16:15.203Z,26.6
2017-06-28T08:17:17.258Z,26.6
2017-06-28T08:18:19.339Z,26.6
2017-06-28T08:19:21.399Z,26.6
2017-06-28T08:20:23.811Z,26.6
2017-06-28T08:21:25.870Z,26.7
2017-06-28T08:22:27.919Z,26.6
2017-06-28T08:23:29.989Z,26.6
2017-06-28T08:24:32.748Z,26.6
2017-06-28T08:25:34.805Z,26.6
2017-06-28T08:26:37.211Z,26.6
2017-06-28T09:03:49.085Z,23.7
2017-06-28T09:04:51.484Z,23.7
2017-06-28T09:05:53.896Z,23.6
2017-06-28T09:06:55.936Z,23.5
2017-06-28T09:07:58.011Z,23.5
2017-06-28T09:09:00.083Z,23.5
2017-06-28T09:10:02.135Z,23.5
2017-06-28T09:11:04.207Z,23.5
2017-06-28T09:12:06.260Z,23.5
2017-06-28T09:13:08.320Z,23.6
2017-06-28T09:14:10.372Z,23.8
2017-06-28T09:15:12.423Z,24
2017-06-28T09:16:14.490Z,24.3
2017-06-28T09:17:16.540Z,24.4
2017-06-28T09:18:18.642Z,24.7
2017-06-28T09:19:20.699Z,24.8
2017-06-28T09:20:22.748Z,25
2017-06-28T09:21:24.834Z,25.1
2017-06-28T09:22:27.248Z,25.2
2017-06-28T09:23:29.308Z,25.3
2017-06-28T09:24:31.367Z,25.4
2017-06-28T09:25:33.443Z,25.5
2017-06-28T09:26:35.856Z,25.7
2017-06-28T09:27:37.917Z,25.8
2017-06-28T09:28:39.989Z,25.8
2017-06-28T09:29:42.379Z,25.9
2017-06-28T09:30:44.437Z,26
2017-06-28T09:31:46.514Z,26
2017-06-28T09:32:48.565Z,26.1
2017-06-28T09:33:50.631Z,26.2
2017-06-28T09:34:52.687Z,26.3
2017-06-28T09:35:54.768Z,26.5
2017-06-28T09:36:56.834Z,26.6
2017-06-28T09:37:59.232Z,26.7
2017-06-28T09:39:01.304Z,26.7
2017-06-28T09:40:03.380Z,26.9
2017-06-28T09:41:05.437Z,26.9
2017-06-28T09:42:07.505Z,27
2017-06-28T09:43:09.566Z,27.2
2017-06-28T09:44:11.633Z,27.3
2017-06-28T09:45:13.698Z,27.4
2017-06-28T09:46:15.779Z,27.6
2017-06-28T09:47:18.509Z,27.7
2017-06-28T09:48:20.575Z,27.8
2017-06-28T09:49:22.987Z,27.9
2017-06-28T09:50:25.045Z,28
2017-06-28T09:51:27.268Z,28.2
2017-06-28T09:52:29.651Z,28.3
2017-06-28T09:53:34.703Z,28.4
2017-06-28T09:54:37.093Z,28.6
2017-06-28T09:55:39.125Z,28.7
2017-06-28T09:56:41.156Z,28.8
2017-06-28T09:57:43.185Z,28.8
2017-06-28T09:58:45.222Z,28.9
2017-06-28T09:59:47.255Z,29
2017-06-28T10:00:49.618Z,29.1
2017-06-28T10:01:51.650Z,29.2
2017-06-28T10:02:54.024Z,29.3
2017-06-28T10:03:56.051Z,29.4
2017-06-28T10:04:58.078Z,29.5
2017-06-28T10:06:00.449Z,29.6
2017-06-28T10:07:02.830Z,29.7
2017-06-28T10:08:04.866Z,29.8
2017-06-28T10:09:06.893Z,30
2017-06-28T10:10:08.925Z,30.1
2017-06-28T10:11:10.956Z,30.2
2017-06-28T10:12:12.989Z,30.3
2017-06-28T10:13:15.029Z,30.4
2017-06-28T10:14:17.437Z,30.5
2017-06-28T10:15:19.820Z,30.6
2017-06-28T10:16:21.848Z,30.7
2017-06-28T10:17:23.889Z,30.8
2017-06-28T10:18:25.928Z,30.9
2017-06-28T10:19:27.959Z,31
2017-06-28T10:20:29.987Z,31.1
2017-06-28T10:21:32.378Z,31.2
2017-06-28T10:22:34.422Z,31.2
2017-06-28T10:23:36.461Z,31.4
2017-06-28T10:24:38.828Z,31.5
2017-06-28T10:25:40.860Z,31.5
2017-06-28T10:26:42.899Z,31.6
2017-06-28T10:27:44.958Z,31.7
2017-06-28T10:28:46.994Z,31.7
2017-06-28T10:29:49.029Z,31.8
2017-06-28T10:30:51.409Z,31.9
2017-06-28T10:31:53.442Z,31.9
2017-06-28T10:32:55.475Z,32
2017-06-28T10:33:57.541Z,32.2
2017-06-28T10:34:59.580Z,32.3
2017-06-28T10:36:01.614Z,32.4
2017-06-28T10:37:03.650Z,32.5
2017-06-28T10:38:05.685Z,32.6
2017-06-28T10:39:07.718Z,32.7
2017-06-28T10:40:09.752Z,32.7
2017-06-28T10:41:11.787Z,32.8
2017-06-28T10:42:14.160Z,32.8
2017-06-28T10:43:16.195Z,32.9
2017-06-28T10:44:18.225Z,32.8
2017-06-28T10:45:20.599Z,32.9
2017-06-28T10:46:22.634Z,33
2017-06-28T10:47:24.670Z,33
2017-06-28T10:48:27.049Z,33
2017-06-28T10:49:29.142Z,33
2017-06-28T10:50:31.179Z,33
2017-06-28T10:51:33.207Z,33
2017-06-28T10:52:35.592Z,33
2017-06-28T10:53:37.630Z,33
2017-06-28T10:54:39.663Z,33
2017-06-28T10:55:41.700Z,33
2017-06-28T10:56:43.739Z,33
2017-06-28T10:57:45.786Z,33
2017-06-28T10:58:47.830Z,33.1
2017-06-28T10:59:49.870Z,33.2
2017-06-28T11:00:51.902Z,33.2
2017-06-28T11:01:53.937Z,33.3
2017-06-28T11:02:55.977Z,33.3
2017-06-28T11:03:58.015Z,33.3
2017-06-28T11:05:00.053Z,33.4
2017-06-28T11:06:02.092Z,33.3
2017-06-28T11:07:04.128Z,33.3
2017-06-28T11:08:06.163Z,33.2
2017-06-28T11:09:08.197Z,33.1
2017-06-28T11:10:10.235Z,33.1
2017-06-28T11:11:12.269Z,33
2017-06-28T11:12:14.641Z,33
2017-06-28T11:13:17.352Z,32.9
2017-06-28T11:14:19.728Z,32.8
2017-06-28T11:15:22.099Z,32.8
2017-06-28T11:16:24.469Z,32.7
2017-06-28T11:17:26.507Z,32.7
2017-06-28T11:18:28.877Z,32.7
2017-06-28T11:19:30.943Z,32.8
2017-06-28T11:20:32.978Z,32.8
2017-06-28T11:21:35.034Z,32.7
2017-06-28T11:22:37.404Z,32.7
2017-06-28T11:23:39.786Z,32.6
2017-06-28T11:24:42.152Z,32.5
2017-06-28T11:25:44.193Z,32.3
2017-06-28T11:26:46.217Z,32.3
2017-06-28T11:27:48.253Z,32.2
2017-06-28T11:28:50.622Z,32.2
2017-06-28T11:29:52.662Z,32.1
2017-06-28T11:30:55.034Z,32.1
2017-06-28T11:31:57.069Z,32.1
2017-06-28T11:32:59.098Z,32.1
2017-06-28T11:34:01.141Z,32.1
2017-06-28T11:35:03.168Z,32
2017-06-28T11:36:05.198Z,32
2017-06-28T11:37:07.231Z,32
2017-06-28T11:38:09.264Z,31.9
2017-06-28T11:39:11.298Z,31.9
2017-06-28T11:40:13.337Z,32
2017-06-28T11:41:15.368Z,32
2017-06-28T11:42:17.403Z,32.1
2017-06-28T11:43:19.781Z,32.2
2017-06-28T11:44:21.808Z,32.2
2017-06-28T11:45:23.845Z,32.1
2017-06-28T11:46:25.879Z,32.2
2017-06-28T11:47:27.919Z,32.2
2017-06-28T11:48:29.950Z,32.3
2017-06-28T11:49:32.002Z,32.3
2017-06-28T11:50:34.039Z,32.2
2017-06-28T11:51:36.093Z,32.2
2017-06-28T11:52:38.137Z,32.1
2017-06-28T11:53:40.170Z,32.1
2017-06-28T11:54:42.205Z,32.2
2017-06-28T11:55:44.236Z,32.1
2017-06-28T11:56:46.267Z,32.2
2017-06-28T11:57:48.639Z,32.2
2017-06-28T11:58:50.672Z,32.2
2017-06-28T11:59:52.712Z,32.2
2017-06-28T12:00:54.748Z,32.2
2017-06-28T12:01:56.779Z,32.3
2017-06-28T12:02:59.502Z,32.2
2017-06-28T12:04:01.531Z,32.2
2017-06-28T12:05:03.565Z,32.2
2017-06-28T12:06:05.599Z,32.3
2017-06-28T12:07:07.635Z,32.3
2017-06-28T12:08:09.672Z,32.3
2017-06-28T12:09:11.713Z,32.3
2017-06-28T12:10:13.746Z,32.4
2017-06-28T12:11:15.781Z,32.5
2017-06-28T12:12:17.815Z,32.6
2017-06-28T12:13:19.845Z,32.7
2017-06-28T12:14:21.891Z,32.8
2017-06-28T12:15:24.270Z,32.8
2017-06-28T12:16:26.299Z,32.9
2017-06-28T12:17:28.335Z,33
2017-06-28T12:18:30.369Z,33.1
2017-06-28T12:19:32.404Z,33.3
2017-06-28T12:20:34.442Z,33.4
2017-06-28T12:21:36.833Z,33.5
2017-06-28T12:22:39.211Z,33.5
2017-06-28T12:23:41.245Z,33.6
2017-06-28T12:24:43.289Z,33.6
2017-06-28T12:25:45.334Z,33.6
2017-06-28T12:26:47.373Z,33.7
2017-06-28T12:27:49.415Z,33.7
2017-06-28T12:28:51.444Z,33.7
2017-06-28T12:29:53.483Z,33.7
2017-06-28T12:30:55.526Z,33.8
2017-06-28T12:31:57.560Z,33.9
2017-06-28T12:32:59.946Z,33.9
2017-06-28T12:34:01.980Z,33.9
2017-06-28T12:35:04.018Z,34
2017-06-28T12:36:06.053Z,34
2017-06-28T12:37:08.098Z,34.1
2017-06-28T12:38:10.132Z,34
2017-06-28T12:39:12.174Z,34.1
2017-06-28T12:40:14.207Z,34.1
2017-06-28T12:41:16.252Z,34.1
2017-06-28T12:42:18.618Z,34.3
2017-06-28T12:43:20.659Z,34.4
2017-06-28T12:44:23.039Z,34.5
2017-06-28T12:45:25.412Z,34.5
2017-06-28T12:46:27.470Z,34.6
2017-06-28T12:47:29.506Z,34.6
2017-06-28T12:48:31.543Z,34.7
2017-06-28T12:49:33.595Z,34.7
2017-06-28T12:50:35.979Z,34.8
2017-06-28T12:51:38.019Z,34.8
2017-06-28T12:52:40.054Z,34.8
2017-06-28T12:53:42.091Z,34.9
2017-06-28T12:54:44.137Z,35
2017-06-28T12:55:46.179Z,35
2017-06-28T12:56:48.208Z,35.1
2017-06-28T12:57:50.247Z,35.2
2017-06-28T12:58:52.287Z,35.2
2017-06-28T12:59:54.336Z,35.3
2017-06-28T13:00:56.704Z,35.3
2017-06-28T13:01:58.745Z,35.3
2017-06-28T13:03:00.779Z,35.3
2017-06-28T13:04:03.167Z,35.3
2017-06-28T13:05:05.211Z,35.4
2017-06-28T13:06:07.252Z,35.4
2017-06-28T13:07:09.296Z,35.5
2017-06-28T13:08:11.330Z,35.6
2017-06-28T13:09:13.711Z,35.6
2017-06-28T13:10:15.757Z,35.8
2017-06-28T13:11:17.791Z,35.9
2017-06-28T13:12:19.833Z,36
2017-06-28T13:13:22.211Z,36
2017-06-28T13:14:24.251Z,36.1
2017-06-28T13:15:26.288Z,36.1
2017-06-28T13:16:28.669Z,36.1
2017-06-28T13:17:30.714Z,36
2017-06-28T13:18:33.093Z,35.9
2017-06-28T13:19:35.126Z,35.7
2017-06-28T13:20:37.169Z,35.6
2017-06-28T13:21:39.200Z,35.4
2017-06-28T13:22:41.233Z,35.3
2017-06-28T13:23:43.273Z,35.2
2017-06-28T13:24:45.324Z,35
2017-06-28T13:25:47.362Z,34.8
2017-06-28T13:26:49.398Z,34.7
2017-06-28T13:27:51.432Z,34.6
2017-06-28T13:28:53.813Z,34.5
2017-06-28T13:29:55.893Z,34.4
2017-06-28T13:30:57.928Z,34.3
2017-06-28T13:31:59.961Z,34.2
2017-06-28T13:33:02.330Z,34.2
2017-06-28T13:34:04.370Z,34.1
2017-06-28T13:35:06.406Z,34
2017-06-28T13:36:08.788Z,33.9
2017-06-28T13:37:10.826Z,33.9
2017-06-28T13:38:12.864Z,33.9
2017-06-28T13:39:14.904Z,33.9
2017-06-28T13:40:16.942Z,33.8
2017-06-28T13:41:18.986Z,33.8
2017-06-28T13:42:21.029Z,33.8
2017-06-28T13:43:23.071Z,33.8
2017-06-28T13:44:25.105Z,33.7
2017-06-28T13:45:27.479Z,33.8
2017-06-28T13:46:29.521Z,33.8
2017-06-28T13:47:31.556Z,33.8
2017-06-28T13:48:33.591Z,33.8
2017-06-28T13:49:35.629Z,33.8
2017-06-28T13:50:37.664Z,33.8
2017-06-28T13:51:39.711Z,33.9
2017-06-28T13:52:41.747Z,33.8
2017-06-28T13:53:43.788Z,33.8
2017-06-28T13:54:45.832Z,33.7
2017-06-28T13:55:47.867Z,33.6
2017-06-28T13:56:49.905Z,33.5
2017-06-28T13:57:51.945Z,33.5
2017-06-28T13:58:53.982Z,33.4
2017-06-28T13:59:56.364Z,33.4
2017-06-28T14:00:58.398Z,33.3
2017-06-28T14:02:00.437Z,33.3
2017-06-28T14:03:02.469Z,33.2
2017-06-28T14:04:04.544Z,33.1
2017-06-28T14:05:06.932Z,33
2017-06-28T14:06:08.961Z,32.9
2017-06-28T14:07:10.998Z,32.9
2017-06-28T14:08:13.041Z,32.8
2017-06-28T14:09:15.417Z,32.8
2017-06-28T14:10:17.449Z,32.7
2017-06-28T14:11:19.499Z,32.6
2017-06-28T14:12:21.533Z,32.5
2017-06-28T14:13:23.574Z,32.6
2017-06-28T14:14:25.607Z,32.5
2017-06-28T14:15:27.639Z,32.5
2017-06-28T14:16:29.676Z,32.4
2017-06-28T14:17:31.709Z,32.4
2017-06-28T14:18:33.740Z,32.3
2017-06-28T14:19:35.787Z,32.3
2017-06-28T14:20:37.821Z,32.2
2017-06-28T14:21:39.848Z,32.2
2017-06-28T14:22:41.886Z,32.2
2017-06-28T14:23:43.917Z,32.2
2017-06-28T14:24:45.951Z,32.3
2017-06-28T14:25:47.985Z,32.3
2017-06-28T14:26:50.026Z,32.4
2017-06-28T14:27:52.093Z,32.6
2017-06-28T14:28:54.132Z,32.6
2017-06-28T14:29:56.163Z,32.8
2017-06-28T14:30:58.199Z,32.8
2017-06-28T14:32:00.235Z,32.9
2017-06-28T14:33:02.270Z,32.9
2017-06-28T14:34:04.302Z,32.9
2017-06-28T14:35:06.343Z,32.9
2017-06-28T14:36:08.371Z,32.8
2017-06-28T14:37:10.407Z,32.7
2017-06-28T14:38:12.459Z,32.6
2017-06-28T14:39:14.490Z,32.5
2017-06-28T14:40:16.526Z,32.5
2017-06-28T14:41:18.557Z,32.5
2017-06-28T14:42:20.594Z,32.4
2017-06-28T14:43:22.634Z,32.3
2017-06-28T14:44:24.671Z,32.3
2017-06-28T14:45:26.701Z,32.3
2017-06-28T14:46:28.732Z,32.3
2017-06-28T14:47:30.777Z,32.2
2017-06-28T14:48:32.815Z,32.2
2017-06-28T14:49:35.215Z,32.2
2017-06-28T14:50:37.587Z,32.3
2017-06-28T14:51:39.625Z,32.4
2017-06-28T14:52:41.699Z,32.5
2017-06-28T14:53:43.736Z,32.6
2017-06-28T14:54:45.781Z,32.7
2017-06-28T14:55:47.817Z,32.7
2017-06-28T14:56:49.853Z,32.7
2017-06-28T14:57:51.885Z,32.7
2017-06-28T14:58:53.916Z,32.7
2017-06-28T14:59:55.991Z,32.6
2017-06-28T15:00:58.029Z,32.6
2017-06-28T15:02:00.058Z,32.5
2017-06-28T15:03:02.104Z,32.5
2017-06-28T15:04:04.135Z,32.3
2017-06-28T15:05:06.516Z,32.3
2017-06-28T15:06:08.554Z,32.2
2017-06-28T15:07:10.588Z,32.2
2017-06-28T15:08:12.661Z,32.2
2017-06-28T15:09:14.692Z,32.1
2017-06-28T15:10:16.734Z,32.1
2017-06-28T15:11:18.770Z,32
2017-06-28T15:12:20.803Z,32
2017-06-28T15:13:22.841Z,31.9
2017-06-28T15:14:24.879Z,31.9
2017-06-28T15:15:27.263Z,31.8
2017-06-28T15:16:29.300Z,31.7
2017-06-28T15:17:31.332Z,31.7
2017-06-28T15:18:33.391Z,31.6
2017-06-28T15:19:35.417Z,31.6
2017-06-28T15:20:37.452Z,31.6
2017-06-28T15:21:39.484Z,31.6
2017-06-28T15:22:41.517Z,31.5
2017-06-28T15:23:43.555Z,31.4
2017-06-28T15:24:45.924Z,31.4
2017-06-28T15:25:47.954Z,31.3
2017-06-28T15:26:49.991Z,31.3
2017-06-28T15:27:52.370Z,31.3
2017-06-28T15:28:54.425Z,31.3
2017-06-28T15:29:56.453Z,31.4
2017-06-28T15:30:58.818Z,31.4
2017-06-28T15:32:00.852Z,31.4
2017-06-28T15:33:02.884Z,31.4
2017-06-28T15:34:04.947Z,31.4
2017-06-28T15:35:06.985Z,31.4
2017-06-28T15:36:09.017Z,31.3
2017-06-28T15:37:11.053Z,31.3
2017-06-28T15:38:13.086Z,31.3
2017-06-28T15:39:15.127Z,31.2
2017-06-28T15:40:17.182Z,31.2
2017-06-28T15:41:19.548Z,31.1
2017-06-28T15:42:21.581Z,31
2017-06-28T15:43:23.615Z,30.9
2017-06-28T15:44:25.980Z,30.9
2017-06-28T15:45:28.007Z,30.8
2017-06-28T15:46:30.049Z,30.7
2017-06-28T15:47:32.418Z,30.6
2017-06-28T15:48:34.825Z,30.5
2017-06-28T15:49:37.205Z,30.5
2017-06-28T15:50:39.572Z,30.4
2017-06-28T15:51:41.604Z,30.3
2017-06-28T15:52:43.631Z,30.2
2017-06-28T15:53:46.340Z,30.2
2017-06-28T15:54:48.375Z,30.1
2017-06-28T15:55:50.412Z,30.1
2017-06-28T15:56:52.773Z,30
2017-06-28T15:57:55.171Z,30
2017-06-28T15:58:57.562Z,30
2017-06-28T15:59:59.930Z,29.9
2017-06-28T16:01:03.276Z,29.9
2017-06-28T16:02:05.803Z,29.8
2017-06-28T16:03:08.182Z,29.8
2017-06-28T16:04:10.221Z,29.8
2017-06-28T16:05:12.257Z,29.8
2017-06-28T16:06:14.286Z,29.7
2017-06-28T16:07:16.602Z,29.7
2017-06-28T16:08:18.637Z,29.6
2017-06-28T16:09:21.008Z,29.6
2017-06-28T16:10:23.371Z,29.6
2017-06-28T16:11:25.397Z,29.5
2017-06-28T16:12:27.434Z,29.4
2017-06-28T16:13:29.473Z,29.4
2017-06-28T16:14:31.499Z,29.3
2017-06-28T16:15:33.556Z,29.2
2017-06-28T16:16:35.586Z,29.1
2017-06-28T16:17:37.954Z,29.1
2017-06-28T16:18:40.013Z,29
2017-06-28T16:19:43.470Z,29
2017-06-28T16:20:45.508Z,28.9
2017-06-28T16:21:47.552Z,28.9
2017-06-28T16:22:49.640Z,28.8
2017-06-28T16:23:52.004Z,28.8
2017-06-28T16:24:54.379Z,28.8
2017-06-28T16:25:56.426Z,28.7
2017-06-28T16:26:58.457Z,28.7
2017-06-28T16:28:00.491Z,28.7
2017-06-28T16:29:02.519Z,28.6
2017-06-28T16:30:04.552Z,28.6
2017-06-28T16:31:06.579Z,28.6
2017-06-28T16:32:08.606Z,28.6
2017-06-28T16:33:10.632Z,28.6
2017-06-28T16:34:13.021Z,28.6
2017-06-28T16:35:15.049Z,28.6
2017-06-28T16:36:17.091Z,28.7
2017-06-28T16:37:19.119Z,28.7
2017-06-28T16:38:21.159Z,28.7
2017-06-28T16:39:23.198Z,28.7
2017-06-28T16:40:25.239Z,28.6
2017-06-28T16:41:27.300Z,28.6
2017-06-28T16:42:29.339Z,28.6
2017-06-28T16:43:31.708Z,28.6
2017-06-28T16:44:33.752Z,28.6
2017-06-28T16:45:36.185Z,28.6
2017-06-28T16:46:38.479Z,28.6
2017-06-28T16:47:41.842Z,28.6
2017-06-28T16:48:45.299Z,28.5
2017-06-28T16:49:50.302Z,28.5
2017-06-28T16:50:55.893Z,28.5
2017-06-28T16:51:58.526Z,28.5
2017-06-28T16:53:00.985Z,28.5
2017-06-28T16:54:03.041Z,28.4
2017-06-28T16:55:05.072Z,28.4
2017-06-28T16:56:07.439Z,28.4
2017-06-28T16:57:09.484Z,28.4
2017-06-28T16:58:11.514Z,28.4
2017-06-28T16:59:13.557Z,28.4
2017-06-28T17:00:15.939Z,28.4
2017-06-28T17:01:17.975Z,28.4
2017-06-28T17:02:20.014Z,28.3
2017-06-28T17:03:22.063Z,28.3
2017-06-28T17:04:24.097Z,28.3
2017-06-28T17:05:26.136Z,28.3
2017-06-28T17:06:28.507Z,28.2
2017-06-28T17:07:30.537Z,28.2
2017-06-28T17:08:32.572Z,28.2
2017-06-28T17:09:34.618Z,28.2
2017-06-28T17:10:36.999Z,28.2
2017-06-28T17:11:39.040Z,28.2
2017-06-28T17:12:41.073Z,28.2
2017-06-28T17:13:43.446Z,28.2
2017-06-28T17:14:45.810Z,28.2
2017-06-28T17:15:47.853Z,28.1
2017-06-28T17:16:50.228Z,28.1
2017-06-28T17:17:52.931Z,28.1
2017-06-28T17:18:54.976Z,28
2017-06-28T17:19:57.360Z,28
2017-06-28T17:20:59.390Z,28
2017-06-28T17:22:01.435Z,28
2017-06-28T17:23:03.475Z,28
2017-06-28T17:24:05.499Z,28
2017-06-28T17:25:07.530Z,28
2017-06-28T17:26:09.572Z,27.9
2017-06-28T17:27:11.601Z,27.9
2017-06-28T17:28:13.629Z,27.8
2017-06-28T17:29:15.658Z,27.8
2017-06-28T17:30:18.024Z,27.8
2017-06-28T17:31:20.049Z,27.7
2017-06-28T17:32:22.082Z,27.7
2017-06-28T17:33:24.455Z,27.6
2017-06-28T17:34:26.834Z,27.6
2017-06-28T17:35:28.857Z,27.6
2017-06-28T17:36:30.881Z,27.6
2017-06-28T17:37:32.910Z,27.5
2017-06-28T17:38:34.938Z,27.5
2017-06-28T17:39:37.657Z,27.5
2017-06-28T17:40:39.726Z,27.4
2017-06-28T17:41:41.758Z,27.4
2017-06-28T17:42:43.788Z,27.3
2017-06-28T17:43:45.831Z,27.3
2017-06-28T17:44:48.547Z,27.3
2017-06-28T17:45:50.570Z,27.3
2017-06-28T17:46:52.931Z,27.2
2017-06-28T17:47:55.299Z,27.2
2017-06-28T17:48:57.676Z,27.1
2017-06-28T17:50:00.043Z,27.1
2017-06-28T17:51:02.069Z,27.1
2017-06-28T17:52:04.101Z,27
2017-06-28T17:53:06.135Z,27
2017-06-28T17:54:08.159Z,27
2017-06-28T17:55:10.185Z,27
2017-06-28T17:56:12.545Z,27
2017-06-28T17:57:14.581Z,27
2017-06-28T17:58:16.604Z,26.9
2017-06-28T17:59:18.964Z,26.9
2017-06-28T18:00:20.995Z,26.9
2017-06-28T18:01:23.023Z,26.9
2017-06-28T18:02:25.404Z,26.9
2017-06-28T18:03:27.431Z,26.9
2017-06-28T18:04:29.497Z,26.9
2017-06-28T18:05:31.868Z,26.8
2017-06-28T18:06:33.893Z,26.8
2017-06-28T18:07:36.251Z,26.8
2017-06-28T18:08:38.277Z,26.9
2017-06-28T18:09:40.312Z,26.8
2017-06-28T18:10:42.352Z,26.8
2017-06-28T18:11:44.376Z,26.8
2017-06-28T18:12:46.402Z,26.7
2017-06-28T18:13:48.430Z,26.7
2017-06-28T18:14:50.800Z,26.8
2017-06-28T18:15:52.828Z,26.7
2017-06-28T18:16:54.849Z,26.7
2017-06-28T18:17:56.875Z,26.7
2017-06-28T18:18:58.903Z,26.7
2017-06-28T18:20:00.926Z,26.7
2017-06-28T18:21:02.958Z,26.7
2017-06-28T18:22:05.667Z,26.7
2017-06-28T18:23:08.029Z,26.7
2017-06-28T18:24:10.052Z,26.6
2017-06-28T18:25:12.083Z,26.6
2017-06-28T18:26:14.100Z,26.6
2017-06-28T18:27:16.125Z,26.6
2017-06-28T18:28:18.156Z,26.6
2017-06-28T18:29:20.516Z,26.6
2017-06-28T18:30:22.555Z,26.6
2017-06-28T18:31:24.573Z,26.6
2017-06-28T18:32:26.601Z,26.6
2017-06-28T18:33:28.640Z,26.6
2017-06-28T18:34:30.668Z,26.6
2017-06-28T18:35:32.690Z,26.6
2017-06-28T18:36:34.712Z,26.6
2017-06-28T18:37:36.741Z,26.6
2017-06-28T18:38:38.764Z,26.6
2017-06-28T18:39:41.137Z,26.5
2017-06-28T18:40:43.166Z,26.5
2017-06-28T18:41:45.204Z,26.5
2017-06-28T18:42:47.567Z,26.5
2017-06-28T18:43:49.594Z,26.5
2017-06-28T18:44:51.621Z,26.5
2017-06-28T18:45:53.645Z,26.5
2017-06-28T18:46:55.663Z,26.5
2017-06-28T18:47:58.036Z,26.5
2017-06-28T18:49:00.062Z,26.5
2017-06-28T18:50:02.426Z,26.5
2017-06-28T18:51:04.468Z,26.5
2017-06-28T18:52:06.498Z,26.5
2017-06-28T18:53:08.522Z,26.5
2017-06-28T18:54:10.553Z,26.5
2017-06-28T18:55:12.909Z,26.5
2017-06-28T18:56:14.942Z,26.5
2017-06-28T18:57:16.970Z,26.4
2017-06-28T18:58:18.996Z,26.4
2017-06-28T18:59:21.013Z,26.4
2017-06-28T19:00:23.038Z,26.3
2017-06-28T19:01:25.063Z,26.3
2017-06-28T19:02:27.447Z,26.3
2017-06-28T19:03:29.475Z,26.3
2017-06-28T19:04:31.500Z,26.3
2017-06-28T19:05:33.524Z,26.3
2017-06-28T19:06:35.884Z,26.2
2017-06-28T19:07:37.906Z,26.2
2017-06-28T19:08:39.937Z,26.2
2017-06-28T19:09:42.007Z,26.2
2017-06-28T19:10:44.033Z,26.2
2017-06-28T19:11:46.062Z,26.1
2017-06-28T19:12:48.090Z,26.1
2017-06-28T19:13:50.110Z,26.1
2017-06-28T19:14:52.134Z,26.1
2017-06-28T19:15:54.160Z,26.1
2017-06-28T19:16:56.194Z,26
2017-06-28T19:17:58.223Z,26
2017-06-28T19:19:00.250Z,26
2017-06-28T19:20:02.264Z,26
2017-06-28T19:21:04.641Z,26
2017-06-28T19:22:07.027Z,26
2017-06-28T19:23:09.394Z,26
2017-06-28T19:24:11.457Z,26
2017-06-28T19:25:13.475Z,26
2017-06-28T19:26:15.502Z,26
2017-06-28T19:27:17.863Z,25.9
2017-06-28T19:28:19.879Z,25.9
2017-06-28T19:29:21.899Z,25.9
2017-06-28T19:30:24.622Z,25.9
2017-06-28T19:31:26.987Z,25.9
2017-06-28T19:32:29.005Z,25.9
2017-06-28T19:33:31.024Z,25.9
2017-06-28T19:34:33.389Z,25.8
2017-06-28T19:35:35.411Z,25.8
2017-06-28T19:36:37.431Z,25.8
2017-06-28T19:37:39.453Z,25.8
2017-06-28T19:38:41.473Z,25.8
2017-06-28T19:39:43.491Z,25.7
2017-06-28T19:40:45.514Z,25.7
2017-06-28T19:41:47.590Z,25.7
2017-06-28T19:42:49.647Z,25.7
2017-06-28T19:43:51.673Z,25.6
2017-06-28T19:44:53.697Z,25.6
2017-06-28T19:45:55.735Z,25.6
2017-06-28T19:46:57.754Z,25.6
2017-06-28T19:47:59.771Z,25.6
2017-06-28T19:49:02.134Z,25.5
2017-06-28T19:50:04.158Z,25.5
2017-06-28T19:51:06.522Z,25.5
2017-06-28T19:52:08.553Z,25.5
2017-06-28T19:53:10.579Z,25.5
2017-06-28T19:54:12.603Z,25.5
2017-06-28T19:55:14.629Z,25.5
2017-06-28T19:56:16.653Z,25.4
2017-06-28T19:57:19.009Z,25.4
2017-06-28T19:58:21.044Z,25.4
2017-06-28T19:59:23.075Z,25.3
2017-06-28T20:00:25.088Z,25.3
2017-06-28T20:01:27.109Z,25.3
2017-06-28T20:02:29.126Z,25.2
2017-06-28T20:03:31.152Z,25.3
2017-06-28T20:04:33.174Z,25.2
2017-06-28T20:05:35.201Z,25.2
2017-06-28T20:06:37.223Z,25.2
2017-06-28T20:07:39.603Z,25.1
2017-06-28T20:08:41.627Z,25.1
2017-06-28T20:09:44.007Z,25.1
2017-06-28T20:10:46.384Z,25.1
2017-06-28T20:11:48.409Z,25.1
2017-06-28T20:12:50.430Z,25.1
2017-06-28T20:13:52.447Z,25.1
2017-06-28T20:14:54.474Z,25.1
2017-06-28T20:15:56.486Z,25.1
2017-06-28T20:16:58.845Z,25.1
2017-06-28T20:18:00.870Z,25
2017-06-28T20:19:02.887Z,25
2017-06-28T20:20:05.255Z,25
2017-06-28T20:21:07.271Z,25
2017-06-28T20:22:09.622Z,25
2017-06-28T20:23:11.651Z,25
2017-06-28T20:24:13.665Z,25
2017-06-28T20:25:15.697Z,25
2017-06-28T20:26:17.721Z,25
2017-06-28T20:27:20.075Z,24.9
2017-06-28T20:28:22.433Z,25
2017-06-28T20:29:24.457Z,25
2017-06-28T20:30:26.488Z,24.9
2017-06-28T20:31:28.542Z,24.9
2017-06-28T20:32:30.567Z,24.9
2017-06-28T20:33:32.914Z,24.8
2017-06-28T20:34:34.937Z,24.8
2017-06-28T20:35:36.952Z,24.8
2017-06-28T20:36:38.992Z,24.8
2017-06-28T20:37:41.344Z,24.7
2017-06-28T20:38:43.368Z,24.7
2017-06-28T20:39:45.393Z,24.7
2017-06-28T20:40:47.751Z,24.7
2017-06-28T20:41:50.125Z,24.7
2017-06-28T20:42:52.155Z,24.7
2017-06-28T20:43:54.178Z,24.7
2017-06-28T20:44:56.529Z,24.7
2017-06-28T20:45:58.550Z,24.7
2017-06-28T20:47:00.573Z,24.6
2017-06-28T20:48:02.629Z,24.6
2017-06-28T20:49:04.994Z,24.6
2017-06-28T20:50:07.018Z,24.6
2017-06-28T20:51:09.033Z,24.6
2017-06-28T20:52:11.053Z,24.6
2017-06-28T20:53:13.076Z,24.5
2017-06-28T20:54:15.098Z,24.5
2017-06-28T20:55:17.116Z,24.5
2017-06-28T20:56:19.138Z,24.5
2017-06-28T20:57:21.418Z,24.5
2017-06-28T20:58:23.440Z,24.5
2017-06-28T20:59:25.797Z,24.5
2017-06-28T21:00:28.159Z,24.5
2017-06-28T21:01:30.179Z,24.5
2017-06-28T21:02:32.200Z,24.5
2017-06-28T21:03:34.216Z,24.5
2017-06-28T21:04:36.238Z,24.5
2017-06-28T21:05:38.251Z,24.5
2017-06-28T21:06:40.270Z,24.5
2017-06-28T21:07:42.633Z,24.5
2017-06-28T21:08:44.646Z,24.5
2017-06-28T21:09:46.661Z,24.6
2017-06-28T21:10:49.036Z,24.5
2017-06-28T21:11:51.084Z,24.5
2017-06-28T21:12:53.442Z,24.5
2017-06-28T21:13:55.796Z,24.5
2017-06-28T21:14:58.157Z,24.4
2017-06-28T21:16:00.166Z,24.4
2017-06-28T21:17:02.183Z,24.4
2017-06-28T21:18:04.205Z,24.4
2017-06-28T21:19:06.227Z,24.4
2017-06-28T21:20:08.247Z,24.4
2017-06-28T21:21:10.271Z,24.3
2017-06-28T21:22:12.297Z,24.3
2017-06-28T21:23:14.312Z,24.3
2017-06-28T21:24:16.332Z,24.3
2017-06-28T21:25:18.698Z,24.3
2017-06-28T21:26:21.055Z,24.3
2017-06-28T21:27:23.074Z,24.3
2017-06-28T21:28:25.425Z,24.2
2017-06-28T21:29:27.443Z,24.2
2017-06-28T21:30:29.479Z,24.2
2017-06-28T21:31:31.492Z,24.2
2017-06-28T21:32:33.507Z,24.1
2017-06-28T21:33:35.527Z,24.1
2017-06-28T21:34:37.547Z,24.1
2017-06-28T21:35:39.569Z,24.1
2017-06-28T21:36:41.926Z,24.1
2017-06-28T21:37:44.301Z,24.1
2017-06-28T21:38:46.323Z,24.1
2017-06-28T21:39:48.680Z,24.1
2017-06-28T21:40:51.032Z,24
2017-06-28T21:41:53.056Z,24